Terminal Aerodrome Forecast
Issued by NWS

Home | Current Version | Previous Version | Text Only | Print | Product List | Glossary On
Versions: 1 2 3 4 5 6 7 8 9 10 11 12 13 14
000
FTUS45 KLKN 292325
TAFELY
TAF
KELY 292325Z 3000/3024 35010G18KT P6SM SKC
     FM300300 VRB06KT P6SM SCT250
     FM300700 VRB08KT P6SM SCT100 BKN250
     FM301800 32011G19KT P6SM BKN100 BKN250=

USA.gov is the U.S. government's official web portal to all federal, state and local government web resources and services.